Архив погоды в Тернее

Метеограмма Терней
Понедельник, 24 Июня
Время местн. Темп Ветер Видим Явления Облачность нижн/средн/верх Атм. давл. Влжн Точка росы ВНГО R Сост. почвы Tg s
Напр Скр Прв ур.ст ур.м изм
22:00 +11.9° С-З 1 - 200 м туман усиливается неба не видно 755 761 +0.7 96% +11.3° - - - - -
19:00 +13.2° В 2 - 2 км дымка облачно с прояснениями 755 760 +0.3 94% +12.3° 300 м 0 - - -
16:00 +16° В,Ю-В 3 - 4 км дымка переменная облачность 754 760 -0.7 83% +13.2° 300 м - - - -
13:00 +15.5° Ю-В 2 - 4 км дымка облачно с прояснениями 755 760 +0.2 86% +13.1° 600 м - - - -
10:00 +16.4° Ю-В 1 - 4 км дымка переменная облачность 755 760 -0.1 84% +13.7° 300 м - - - -
07:00 +13° С-З 1 - 4 км дымка преимущественно облачно 755 760 +0.4 97% +12.5° 600 м 0 Влажная (без луж) +12° -
04:00 +11.1° штиль 0 - 2 км дымка облачно 754 760 +0.3 96% +10.5° 300 м - - - -
01:00 +13° С-З 1 - 20 км - облачно с прояснениями 754 760 -0.1 96% +12.4° 1 км - - - -
Воскресенье, 23 Июня
Время местн. Темп Ветер Видим Явления Облачность нижн/средн/верх Атм. давл. Влжн Точка росы ВНГО R Сост. почвы Tg s
Напр Скр Прв ур.ст ур.м изм
22:00 +13° штиль 0 - 20 км - облачно с прояснениями 754 760 +0.8 93% +11.9° 1 км - - - -
19:00 +15.2° штиль 0 - 50 км - облачно 753 759 +0.1 91% +13.8° 600 м 4 - - -
16:00 +14.6° В 2 - 50 км небо без изменений {ливневые осадки} облачно 753 759 -0.2 94% +13.6° 600 м - - - -
13:00 +13.5° В 2 - 10 км слабый ливневый дождь облачно 753 759 +0.5 94% +12.6° 600 м - - - -
10:00 +13.3° В 2 - 10 км слабый ливневый дождь облачно 753 759 +0.4 94% +12.4° 600 м - - - -
07:00 +12.1° С-З 1 - 10 км слабый ливневый дождь облачно 753 758 -0.1 95% +11.4° 600 м 4 Влажная (без луж) - -
04:00 +11.9° Ю,Ю-З 1 - 10 км слабый ливневый дождь облачно 753 758 -0.5 95% +11.1° 600 м - - - -
01:00 +11.5° В,С-В 1 - 10 км слабый ливневый дождь облачно 753 759 -0.1 95% +10.8° 600 м - - - -
Суббота, 22 Июня
Время местн. Темп Ветер Видим Явления Облачность нижн/средн/верх Атм. давл. Влжн Точка росы ВНГО R Сост. почвы Tg s
Напр Скр Прв ур.ст ур.м изм
22:00 +12.1° штиль 0 - 20 км - облачно 753 759 +0.2 90% +10.5° 1 км - - - -
19:00 +12° В,Ю-В 1 - 50 км - облачно 753 759 +0.6 88% +10.1° 600 м 0 - - -
16:00 +16.3° Ю-В 1 - 50 км - облачно с прояснениями 752 758 -0.2 77% +12.2° 1 км - - - -
13:00 +14.2° Ю-В 1 - 50 км - облачно с прояснениями 753 758 -0.1 85% +11.7° 600 м - - - -
10:00 +11.9° Ю-В 1 - более 50 км - облачно 753 758 +0.4 94% +10.9° 600 м - - - -
07:00 +11.1° Ю 1 - 50 км - облачно 752 758 +0.8 96% +10.5° 600 м 4 Влажная (без луж) - -
04:00 +11.1° штиль 0 - 20 км небо без изменений {гроза, ливневые осадки} облачно 752 757 0 96% +10.5° 600 м - - - -
01:00 +11.3° Ю-З 1 - 10 км слабый ливневый дождь {гроза} облачно 752 757 -0.3 96% +10.7° 600 м - - - -
Пятница, 21 Июня
Время местн. Темп Ветер Видим Явления Облачность нижн/средн/верх Атм. давл. Влжн Точка росы ВНГО R Сост. почвы Tg s
Напр Скр Прв ур.ст ур.м изм
22:00 +11.7° Ю-В 1 - 10 км слабая или умеренная гроза с осадками облачно 752 757 +0.5 95% +11° 600 м - - - -
19:00 +11.8° В,Ю-В 1 - более 50 км небо без изменений {ливневые осадки} облачно 751 757 +0.2 93% +10.7° 600 м 46 - - -